createdAt,value
2022-08-11T00:02:14.503Z,100873.28
2022-08-11T00:05:16.577Z,100873.88
2022-08-11T00:08:07.025Z,100876.84
2022-08-11T00:11:05.823Z,100878.53
2022-08-11T00:13:56.457Z,100879.09
2022-08-11T00:17:05.382Z,100885.44
2022-08-11T00:20:14.733Z,100878.66
2022-08-11T00:23:19.733Z,100884.84
2022-08-11T00:26:10.750Z,100886.53
2022-08-11T00:29:13.977Z,100881.88
2022-08-11T00:32:06.494Z,100885.22
2022-08-11T00:35:49.904Z,100889.03
2022-08-11T00:38:08.720Z,100884.28
2022-08-11T00:41:25.563Z,100889.13
2022-08-11T00:44:43.383Z,100886.53
2022-08-11T00:47:34.650Z,100887.75
2022-08-11T00:50:24.796Z,100894.06
2022-08-11T00:53:52.252Z,100892.69
2022-08-11T00:56:59.776Z,100900.78
2022-08-11T01:00:15.208Z,100896.34
2022-08-11T01:03:27.230Z,100886.34
2022-08-11T01:06:50.812Z,100890.19
2022-08-11T01:09:52.468Z,100894.28
2022-08-11T01:13:00.080Z,100897.25
2022-08-11T01:16:11.024Z,100884.41
2022-08-11T01:19:04.094Z,100881.72
2022-08-11T01:22:26.010Z,100884.09
2022-08-11T01:25:56.940Z,100881.22
2022-08-11T01:29:20.617Z,100883.53
2022-08-11T01:32:24.781Z,100882.25
2022-08-11T01:35:32.962Z,100878.31
2022-08-11T01:38:45.832Z,100872.53
2022-08-11T01:42:02.921Z,100876.75
2022-08-11T01:45:38.636Z,100873.38
2022-08-11T01:48:50.070Z,100884.84
2022-08-11T01:51:55.804Z,100873.84
2022-08-11T01:55:02.159Z,100873.88
2022-08-11T01:58:40.835Z,100873.72
2022-08-11T02:02:01.908Z,100863.34
2022-08-11T02:05:01.148Z,100857.31
2022-08-11T02:08:13.188Z,100867.72
2022-08-11T02:11:35.830Z,100852.16
2022-08-11T02:14:39.969Z,100855.25
2022-08-11T02:18:03.813Z,100852.97
2022-08-11T02:21:21.044Z,100850.91
2022-08-11T02:24:25.363Z,100843.91
2022-08-11T02:27:28.692Z,100842.28
2022-08-11T02:30:20.588Z,100845.66
2022-08-11T02:33:27.435Z,100847.19
2022-08-11T02:36:22.882Z,100846.09
2022-08-11T02:39:16.898Z,100849.06
2022-08-11T02:42:32.817Z,100845.59
2022-08-11T02:45:37.691Z,100844.59
2022-08-11T02:49:04.350Z,100829.66
2022-08-11T02:51:58.102Z,100837.66
2022-08-11T02:55:13.449Z,100834.34
2022-08-11T02:58:51.799Z,100845.00
2022-08-11T03:02:05.253Z,100840.22
2022-08-11T03:05:05.243Z,100841.09
2022-08-11T03:08:10.494Z,100840.69
2022-08-11T03:11:23.627Z,100836.91
2022-08-11T03:14:40.833Z,100828.19
2022-08-11T03:17:34.971Z,100836.16
2022-08-11T03:20:38.153Z,100829.97
2022-08-11T03:24:08.129Z,100823.75
2022-08-11T03:27:13.094Z,100820.81
2022-08-11T03:30:19.558Z,100828.75
2022-08-11T03:33:50.482Z,100818.56
2022-08-11T03:37:16.944Z,100812.41
2022-08-11T03:40:44.856Z,100807.00
2022-08-11T03:43:50.135Z,100807.91
2022-08-11T03:47:09.457Z,100805.06
2022-08-11T03:50:26.947Z,100794.22
2022-08-11T03:53:43.738Z,100805.06
2022-08-11T03:56:54.378Z,100801.72
2022-08-11T03:59:46.678Z,100792.16
2022-08-11T04:02:55.669Z,100784.25
2022-08-11T04:06:15.231Z,100777.22
2022-08-11T04:09:38.856Z,100778.22
2022-08-11T04:12:52.968Z,100768.22
2022-08-11T04:16:11.598Z,100768.03
2022-08-11T04:19:40.032Z,100759.72
2022-08-11T04:22:32.511Z,100758.50
2022-08-11T04:25:57.870Z,100753.94
2022-08-11T04:29:13.111Z,100755.19
2022-08-11T04:32:21.950Z,100761.44
2022-08-11T04:35:32.568Z,100757.28
2022-08-11T04:38:40.477Z,100755.63
2022-08-11T04:42:06.183Z,100753.16
2022-08-11T04:45:12.383Z,100743.56
2022-08-11T04:48:57.793Z,100743.59
2022-08-11T04:52:06.022Z,100729.03
2022-08-11T04:55:40.465Z,100730.34
2022-08-11T04:59:04.926Z,100719.91
2022-08-11T05:02:22.984Z,100723.22
2022-08-11T05:05:34.734Z,100716.16
2022-08-11T05:08:31.213Z,100704.91
2022-08-11T05:11:27.655Z,100703.25
2022-08-11T05:14:47.303Z,100702.41
2022-08-11T05:18:06.416Z,100688.84
2022-08-11T05:21:16.343Z,100676.53
2022-08-11T05:24:57.862Z,100677.00
2022-08-11T05:28:54.667Z,100677.38
2022-08-11T05:32:08.661Z,100683.22
2022-08-11T05:35:00.125Z,100676.53
2022-08-11T05:38:09.384Z,100677.38
2022-08-11T05:41:18.319Z,100679.25
2022-08-11T05:44:27.354Z,100681.97
2022-08-11T05:47:46.150Z,100683.41
2022-08-11T05:50:55.333Z,100684.25
2022-08-11T05:54:27.864Z,100679.03
2022-08-11T05:57:49.647Z,100681.56
2022-08-11T06:00:47.749Z,100679.47
2022-08-11T06:03:58.923Z,100685.31
2022-08-11T06:06:55.034Z,100689.91
2022-08-11T06:09:50.142Z,100695.72
2022-08-11T06:12:42.189Z,100697.41
2022-08-11T06:15:34.450Z,100697.84
2022-08-11T06:18:24.886Z,100695.94
2022-08-11T06:21:15.194Z,100691.97
2022-08-11T06:24:16.469Z,100691.16
2022-08-11T06:27:13.109Z,100688.44
2022-08-11T06:30:04.132Z,100692.41
2022-08-11T06:32:56.863Z,100694.47
2022-08-11T06:36:12.421Z,100692.59
2022-08-11T06:39:21.700Z,100685.72
2022-08-11T06:42:16.127Z,100684.22
2022-08-11T06:45:22.263Z,100681.69
2022-08-11T06:48:19.775Z,100690.22
2022-08-11T06:51:13.830Z,100683.53
2022-08-11T06:54:05.821Z,100683.31
2022-08-11T06:57:31.062Z,100684.38
2022-08-11T07:00:33.020Z,100683.47
2022-08-11T07:03:24.220Z,100684.69
2022-08-11T07:06:50.577Z,100687.34
2022-08-11T07:10:36.076Z,100684.88
2022-08-11T07:13:45.894Z,100696.09
2022-08-11T07:16:36.846Z,100685.66
2022-08-11T07:19:47.418Z,100689.44
2022-08-11T07:22:56.985Z,100695.56
2022-08-11T07:26:09.093Z,100690.97
2022-08-11T07:29:03.169Z,100698.56
2022-08-11T07:31:55.376Z,100702.31
2022-08-11T07:34:54.601Z,100691.69
2022-08-11T07:38:01.771Z,100706.47
2022-08-11T07:40:53.139Z,100705.22
2022-08-11T07:43:45.668Z,100712.13
2022-08-11T07:46:54.206Z,100715.88
2022-08-11T07:50:05.628Z,100724.03
2022-08-11T07:52:56.770Z,100728.19
2022-08-11T07:55:50.174Z,100726.38
2022-08-11T07:59:05.239Z,100737.00
2022-08-11T08:02:16.731Z,100745.38
2022-08-11T08:05:27.345Z,100757.06
2022-08-11T08:08:36.246Z,100754.94
2022-08-11T08:11:45.768Z,100755.38
2022-08-11T08:14:54.574Z,100758.69
2022-08-11T08:18:09.162Z,100748.88
2022-08-11T08:21:18.446Z,100738.88
2022-08-11T08:24:09.458Z,100745.56
2022-08-11T08:26:59.975Z,100754.91
2022-08-11T08:30:09.652Z,100754.50
2022-08-11T08:33:02.457Z,100752.19
2022-08-11T08:36:13.478Z,100755.34
2022-08-11T08:39:04.979Z,100761.59
2022-08-11T08:41:57.915Z,100769.50
2022-08-11T08:44:52.325Z,100769.94
2022-08-11T08:47:47.003Z,100766.59
2022-08-11T08:51:05.155Z,100765.34
2022-08-11T08:53:56.388Z,100777.22
2022-08-11T08:56:49.256Z,100787.78
2022-08-11T08:59:48.628Z,100786.53
2022-08-11T09:02:40.339Z,100791.09
2022-08-11T09:05:30.011Z,100798.53
2022-08-11T09:08:21.577Z,100808.50
2022-08-11T09:11:31.763Z,100822.63
2022-08-11T09:14:25.076Z,100829.25
2022-08-11T09:17:16.596Z,100830.69
2022-08-11T09:20:08.299Z,100832.50
2022-08-11T09:26:50.546Z,100828.28
2022-08-11T09:29:40.647Z,100817.88
2022-08-11T09:32:32.938Z,100827.81
2022-08-11T09:35:24.035Z,100839.81
2022-08-11T09:38:35.334Z,100846.00
2022-08-11T09:41:25.819Z,100838.41
2022-08-11T09:44:33.951Z,100835.44
2022-08-11T09:47:33.932Z,100851.22
2022-08-11T09:50:23.367Z,100853.88
2022-08-11T09:53:37.157Z,100842.16
2022-08-11T09:56:44.534Z,100842.56
2022-08-11T09:59:36.112Z,100847.31
2022-08-11T10:02:30.311Z,100857.22
2022-08-11T10:05:41.407Z,100863.91
2022-08-11T10:08:32.659Z,100863.09
2022-08-11T10:11:26.043Z,100853.50
2022-08-11T10:14:37.494Z,100865.16
2022-08-11T10:17:29.265Z,100868.81
2022-08-11T10:20:22.671Z,100864.69
2022-08-11T10:23:33.753Z,100863.41
2022-08-11T10:26:47.205Z,100860.69
2022-08-11T10:29:57.505Z,100856.06
2022-08-11T10:33:07.907Z,100861.09
2022-08-11T10:36:01.577Z,100862.75
2022-08-11T10:38:53.657Z,100869.84
2022-08-11T10:42:08.508Z,100855.88
2022-08-11T10:45:00.977Z,100854.09
2022-08-11T10:47:51.635Z,100856.63
2022-08-11T10:51:00.996Z,100852.25
2022-08-11T10:54:12.625Z,100859.31
2022-08-11T10:57:21.311Z,100859.88
2022-08-11T11:00:16.562Z,100859.06
2022-08-11T11:03:22.825Z,100865.22
2022-08-11T11:06:38.355Z,100874.81
2022-08-11T11:10:00.952Z,100885.16
2022-08-11T11:13:53.364Z,100885.56
2022-08-11T11:16:52.974Z,100887.13
2022-08-11T11:19:45.325Z,100905.38
2022-08-11T11:22:40.623Z,100903.34
2022-08-11T11:26:12.557Z,100907.06
2022-08-11T11:29:10.688Z,100903.34
2022-08-11T11:32:24.079Z,100911.44
2022-08-11T11:35:37.897Z,100912.88
2022-08-11T11:38:30.063Z,100908.50
2022-08-11T11:41:27.723Z,100907.84
2022-08-11T11:44:19.798Z,100918.00
2022-08-11T11:47:12.873Z,100923.84
2022-08-11T11:50:18.035Z,100927.78
2022-08-11T11:53:21.870Z,100934.00
2022-08-11T11:56:17.486Z,100931.50
2022-08-11T11:59:31.132Z,100931.88
2022-08-11T12:02:23.719Z,100932.91
2022-08-11T12:05:19.148Z,100936.25
2022-08-11T12:08:24.602Z,100942.13
2022-08-11T12:11:36.671Z,100950.59
2022-08-11T12:14:30.360Z,100962.44
2022-08-11T12:17:25.244Z,100967.25
2022-08-11T12:20:34.035Z,100956.66
2022-08-11T12:23:43.565Z,100970.06
2022-08-11T12:27:16.656Z,100963.38
2022-08-11T12:30:13.224Z,100971.75
2022-08-11T12:33:05.495Z,100986.28
2022-08-11T12:36:01.614Z,100995.78
2022-08-11T12:38:54.159Z,100993.25
2022-08-11T12:42:04.258Z,100998.84
2022-08-11T12:45:22.301Z,101004.25
2022-08-11T12:49:00.765Z,101005.72
2022-08-11T12:52:14.819Z,101011.50
2022-08-11T12:55:14.094Z,101018.41
2022-08-11T12:58:22.217Z,101014.38
2022-08-11T13:01:32.591Z,101021.59
2022-08-11T13:04:44.763Z,101026.72
2022-08-11T13:07:50.682Z,101037.22
2022-08-11T13:11:04.899Z,101037.66
2022-08-11T13:14:00.221Z,101043.44
2022-08-11T13:17:13.478Z,101046.91
2022-08-11T13:20:05.179Z,101047.94
2022-08-11T13:22:59.032Z,101054.66
2022-08-11T13:25:56.213Z,101055.66
2022-08-11T13:28:48.096Z,101044.88
2022-08-11T13:31:40.351Z,101042.47
2022-08-11T13:34:36.999Z,101035.47
2022-08-11T13:38:17.990Z,101037.78
2022-08-11T13:40:55.697Z,101039.94
2022-08-11T13:43:47.780Z,101043.19
2022-08-11T13:46:40.039Z,101040.13
2022-08-11T13:49:43.141Z,101044.50
2022-08-11T13:52:34.542Z,101048.59
2022-08-11T13:55:45.112Z,101050.63
2022-08-11T13:58:39.544Z,101052.47
2022-08-11T14:02:20.019Z,101057.50
2022-08-11T14:05:08.806Z,101061.88
2022-08-11T14:08:07.648Z,101061.22
2022-08-11T14:12:21.150Z,101058.50
2022-08-11T14:14:37.244Z,101061.00
2022-08-11T14:17:47.280Z,101060.34
2022-08-11T14:21:15.582Z,101058.16
2022-08-11T14:24:07.322Z,101058.50
2022-08-11T14:26:58.887Z,101062.22
2022-08-11T14:29:56.938Z,101062.88
2022-08-11T14:32:55.537Z,101054.78
2022-08-11T14:36:23.452Z,101044.53
2022-08-11T14:39:19.477Z,101054.13
2022-08-11T14:42:28.647Z,101048.25
2022-08-11T14:45:58.314Z,101052.81
2022-08-11T14:48:47.701Z,101046.56
2022-08-11T14:51:38.129Z,101039.69
2022-08-11T14:54:48.790Z,101035.69
2022-08-11T14:57:54.825Z,101028.59
2022-08-11T15:00:47.145Z,101011.59
2022-08-11T15:03:37.345Z,101010.75
2022-08-11T15:06:30.050Z,101002.19
2022-08-11T15:09:20.556Z,100993.22
2022-08-11T15:12:32.184Z,100984.78
2022-08-11T15:15:40.582Z,100986.16
2022-08-11T15:18:33.495Z,100982.81
2022-08-11T15:21:41.247Z,100974.53
2022-08-11T15:24:31.270Z,100977.03
2022-08-11T15:27:40.740Z,100972.00
2022-08-11T15:30:49.511Z,100964.56
2022-08-11T15:33:59.777Z,100964.94
2022-08-11T15:37:09.412Z,100966.97
2022-08-11T15:40:31.272Z,100969.03
2022-08-11T15:43:51.565Z,100973.69
2022-08-11T15:47:00.276Z,100965.22
2022-08-11T15:50:10.528Z,100960.94
2022-08-11T15:53:06.158Z,100953.53
2022-08-11T15:55:57.414Z,100946.38
2022-08-11T15:59:10.496Z,100949.59
2022-08-11T16:02:42.195Z,100946.13
2022-08-11T16:05:45.879Z,100949.38
2022-08-11T16:08:37.530Z,100956.13
2022-08-11T16:11:27.493Z,100955.47
2022-08-11T16:14:36.284Z,100957.03
2022-08-11T16:17:29.854Z,100960.41
2022-08-11T16:20:23.308Z,100947.44
2022-08-11T16:23:13.753Z,100962.31
2022-08-11T16:27:09.452Z,100960.25
2022-08-11T16:29:13.877Z,100957.47
2022-08-11T16:32:19.695Z,100949.22
2022-08-11T16:35:42.771Z,100941.94
2022-08-11T16:38:38.359Z,100931.88
2022-08-11T16:41:50.542Z,100931.88
2022-08-11T16:44:59.508Z,100932.72
2022-08-11T16:48:33.154Z,100928.16
2022-08-11T16:51:02.238Z,100928.31
2022-08-11T16:54:04.666Z,100935.56
2022-08-11T16:56:56.969Z,100933.06
2022-08-11T16:59:46.404Z,100933.22
2022-08-11T17:02:57.603Z,100933.41
2022-08-11T17:06:16.353Z,100928.38
2022-08-11T17:09:24.360Z,100923.34
2022-08-11T17:12:32.963Z,100921.00
2022-08-11T17:15:41.838Z,100919.13
2022-08-11T17:18:41.689Z,100918.69
2022-08-11T17:22:01.017Z,100917.00
2022-08-11T17:24:52.789Z,100916.63
2022-08-11T17:27:44.675Z,100913.75
2022-08-11T17:30:53.153Z,100920.50
2022-08-11T17:34:00.963Z,100914.97
2022-08-11T17:36:52.758Z,100915.31
2022-08-11T17:39:43.593Z,100908.25
2022-08-11T17:42:52.848Z,100897.47
2022-08-11T17:46:02.795Z,100901.53
2022-08-11T17:48:54.373Z,100901.53
2022-08-11T17:52:04.833Z,100902.38
2022-08-11T17:55:13.750Z,100902.56
2022-08-11T17:58:21.665Z,100901.53
2022-08-11T18:01:12.676Z,100891.13
2022-08-11T18:04:04.069Z,100882.38
2022-08-11T18:06:56.372Z,100877.00
2022-08-11T18:10:03.978Z,100882.38
2022-08-11T18:13:13.641Z,100877.50
2022-08-11T18:16:21.043Z,100861.53
2022-08-11T18:19:30.793Z,100859.50
2022-08-11T18:22:55.469Z,100854.94
2022-08-11T18:26:07.498Z,100854.28
2022-08-11T18:29:22.813Z,100851.78
2022-08-11T18:32:49.204Z,100851.47
2022-08-11T18:36:01.889Z,100856.88
2022-08-11T18:39:10.563Z,100855.34
2022-08-11T18:42:29.113Z,100855.19
2022-08-11T18:45:45.315Z,100849.13
2022-08-11T18:48:57.671Z,100845.59
2022-08-11T18:52:08.622Z,100847.63
2022-08-11T18:55:19.180Z,100850.16
2022-08-11T18:58:30.188Z,100858.59
2022-08-11T19:01:40.265Z,100850.50
2022-08-11T19:04:51.723Z,100849.50
2022-08-11T19:08:01.320Z,100859.41
2022-08-11T19:11:10.532Z,100866.81
2022-08-11T19:14:20.922Z,100854.22
2022-08-11T19:17:43.442Z,100857.25
2022-08-11T19:20:55.951Z,100863.13
2022-08-11T19:24:07.321Z,100856.25
2022-08-11T19:27:15.402Z,100857.94
2022-08-11T19:30:24.125Z,100857.44
2022-08-11T19:33:59.771Z,100857.13
2022-08-11T19:37:02.196Z,100859.44
2022-08-11T19:40:14.777Z,100856.09
2022-08-11T19:43:26.444Z,100860.28
2022-08-11T19:46:39.147Z,100861.66
2022-08-11T19:49:47.565Z,100869.72
2022-08-11T19:52:56.652Z,100873.28
2022-08-11T19:56:08.652Z,100878.81
2022-08-11T19:59:16.270Z,100872.09
2022-08-11T20:02:27.980Z,100878.16
2022-08-11T20:05:55.519Z,100882.53
2022-08-11T20:09:09.814Z,100885.56
2022-08-11T20:12:18.644Z,100883.53
2022-08-11T20:15:32.129Z,100879.16
2022-08-11T20:18:40.613Z,100872.47
2022-08-11T20:21:49.213Z,100886.13
2022-08-11T20:24:58.162Z,100874.50
2022-08-11T20:28:07.057Z,100872.34
2022-08-11T20:31:14.862Z,100871.13
2022-08-11T20:34:23.534Z,100873.16
2022-08-11T20:37:34.422Z,100874.19
2022-08-11T20:40:44.808Z,100872.50
2022-08-11T20:44:08.473Z,100868.97
2022-08-11T20:47:18.009Z,100863.94
2022-08-11T20:50:28.784Z,100856.69
2022-08-11T20:53:39.372Z,100857.03
2022-08-11T20:56:51.011Z,100849.31
2022-08-11T20:59:58.915Z,100845.44
2022-08-11T21:03:08.948Z,100856.38
2022-08-11T21:06:31.155Z,100856.72
2022-08-11T21:09:58.213Z,100852.72
2022-08-11T21:13:18.066Z,100859.78
2022-08-11T21:16:39.911Z,100865.16
2022-08-11T21:19:59.799Z,100863.47
2022-08-11T21:23:24.288Z,100856.41
2022-08-11T21:26:35.974Z,100858.78
2022-08-11T21:29:45.867Z,100863.84
2022-08-11T21:32:54.257Z,100859.47
2022-08-11T21:36:02.354Z,100858.66
2022-08-11T21:39:10.878Z,100856.78
2022-08-11T21:42:19.581Z,100867.91
2022-08-11T21:45:29.749Z,100866.22
2022-08-11T21:48:37.900Z,100874.28
2022-08-11T21:51:46.204Z,100878.66
2022-08-11T21:54:53.556Z,100884.38
2022-08-11T21:58:01.917Z,100884.72
2022-08-11T22:01:09.779Z,100883.03
2022-08-11T22:04:18.966Z,100888.41
2022-08-11T22:07:27.366Z,100879.34
2022-08-11T22:10:42.525Z,100885.03
2022-08-11T22:14:05.946Z,100890.44
2022-08-11T22:17:16.219Z,100890.44
2022-08-11T22:20:25.864Z,100899.50
2022-08-11T22:23:37.055Z,100893.66
2022-08-11T22:26:47.548Z,100890.59
2022-08-11T22:29:55.908Z,100893.47
2022-08-11T22:33:04.703Z,100900.50
2022-08-11T22:36:13.833Z,100905.22
2022-08-11T22:39:23.616Z,100909.78
2022-08-11T22:42:33.567Z,100905.22
2022-08-11T22:45:42.042Z,100907.91
2022-08-11T22:48:51.180Z,100913.97
2022-08-11T22:52:01.187Z,100918.34
2022-08-11T22:55:11.216Z,100916.16
2022-08-11T22:58:19.097Z,100922.06
2022-08-11T23:01:28.103Z,100918.69
2022-08-11T23:04:37.570Z,100922.91
2022-08-11T23:07:51.261Z,100922.72
2022-08-11T23:10:59.952Z,100929.44
2022-08-11T23:14:08.131Z,100931.78
2022-08-11T23:17:16.416Z,100939.50
2022-08-11T23:20:38.898Z,100938.16
2022-08-11T23:23:52.922Z,100942.38
2022-08-11T23:27:01.206Z,100946.56
2022-08-11T23:30:11.503Z,100955.31
2022-08-11T23:33:21.404Z,100947.06
2022-08-11T23:36:36.174Z,100948.41
2022-08-11T23:39:54.685Z,100959.66
2022-08-11T23:43:02.298Z,100962.50
2022-08-11T23:46:10.757Z,100957.09
2022-08-11T23:49:22.803Z,100953.88
2022-08-11T23:52:34.703Z,100957.38
2022-08-11T23:55:43.220Z,100957.88
2022-08-11T23:58:53.073Z,100951.25
